^^
Grace C. Lehan Memorial Weather Station Historical Data
Daily Summary for August 15, 2021 Units:  Both    English   Metric
Daily Weekly Monthly Yearly
  High: Low: Average:
Temperature: 85.7 °F /  29.8 °C 68.7 °F /  20.4 °C 76.2 °F /  24.6 °C
Dew Point: 75.2 °F /  24 °C 64.6 °F /  18.1 °C 70.3 °F /  21.3 °C
Humidity: 94% 67.8% 83%
Wind Speed: 2.7mph /  4.3km/h - 0.3mph /  0.5km/h
Wind Gust: 12mph /  19.3km/h - -
Wind- - SSW
Pressure: 30.02 in /  1016.5 hPa 29.85 in /  1010.7 hPa -
Precipitation: 0.03 in /  0.76 mm    
 
 
Tabular Data for August 15, 2021
Time Temperature Dew Point Pressure Wind Wind Speed Wind Gust Humidity Rainfall Rate (Hourly) solar
00:00 68.9 °F /  20.5 °C 64.6 °F /  18.1 °C 29.98in /  1015.1hPa Calm     86% 0.00in /  0mm 0 W/m2
00:09 68.9 °F /  20.5 °C 64.7 °F /  18.2 °C 29.98in /  1015.1hPa Calm     86.5% 0.00in /  0mm 0 W/m2
00:14 68.8 °F /  20.4 °C 64.8 °F /  18.2 °C 29.98in /  1015.1hPa Calm     87% 0.00in /  0mm 0 W/m2
00:19 68.8 °F /  20.4 °C 64.8 °F /  18.2 °C 29.98in /  1015.1hPa Calm     87% 0.00in /  0mm 0 W/m2
00:24 68.8 °F /  20.4 °C 64.8 °F /  18.2 °C 29.98in /  1015.1hPa Calm     87% 0.00in /  0mm 0 W/m2
00:29 68.7 °F /  20.4 °C 64.7 °F /  18.2 °C 29.98in /  1015.1hPa Calm     87% 0.00in /  0mm 0 W/m2
00:34 68.7 °F /  20.4 °C 64.7 °F /  18.2 °C 29.98in /  1015.1hPa Calm     87% 0.00in /  0mm 0 W/m2
00:39 68.7 °F /  20.4 °C 64.7 °F /  18.2 °C 29.98in /  1015.1hPa Calm     87% 0.00in /  0mm 0 W/m2
00:44 68.7 °F /  20.4 °C 64.7 °F /  18.2 °C 29.98in /  1015.1hPa Calm     87% 0.00in /  0mm 0 W/m2
00:49 68.7 °F /  20.4 °C 64.7 °F /  18.2 °C 29.97in /  1014.8hPa Calm     87% 0.00in /  0mm 0 W/m2
00:54 68.7 °F /  20.4 °C 64.9 °F /  18.3 °C 29.97in /  1014.8hPa Calm     87.8% 0.00in /  0mm 0 W/m2
00:59 68.7 °F /  20.4 °C 65 °F /  18.3 °C 29.97in /  1014.8hPa Calm     88% 0.00in /  0mm 0 W/m2
01:04 68.7 °F /  20.4 °C 65 °F /  18.3 °C 29.97in /  1014.8hPa Calm     88% 0.00in /  0mm 0 W/m2
01:09 68.7 °F /  20.4 °C 65 °F /  18.3 °C 29.97in /  1014.8hPa Calm     88% 0.00in /  0mm 0 W/m2
01:14 68.8 °F /  20.4 °C 65.1 °F /  18.4 °C 29.96in /  1014.4hPa Calm     88% 0.00in /  0mm 0 W/m2
01:19 68.8 °F /  20.4 °C 65.1 °F /  18.4 °C 29.96in /  1014.4hPa Calm     88% 0.00in /  0mm 0 W/m2
01:24 68.8 °F /  20.4 °C 65.1 °F /  18.4 °C 29.96in /  1014.4hPa Calm     88% 0.00in /  0mm 0 W/m2
01:29 68.9 °F /  20.5 °C 65.2 °F /  18.4 °C 29.96in /  1014.4hPa Calm     88% 0.00in /  0mm 0 W/m2
01:34 68.9 °F /  20.5 °C 65.2 °F /  18.4 °C 29.96in /  1014.4hPa Calm     88.1% 0.00in /  0mm 0 W/m2
01:39 69 °F /  20.6 °C 65.6 °F /  18.7 °C 29.96in /  1014.4hPa Calm     89% 0.00in /  0mm 0 W/m2
01:44 69 °F /  20.6 °C 65.7 °F /  18.7 °C 29.96in /  1014.4hPa Calm     89% 0.00in /  0mm 0 W/m2
01:49 69.1 °F /  20.6 °C 65.7 °F /  18.7 °C 29.96in /  1014.4hPa Calm     89% 0.00in /  0mm 0 W/m2
01:54 69.2 °F /  20.7 °C 65.8 °F /  18.8 °C 29.96in /  1014.4hPa Calm     89% 0.00in /  0mm 0 W/m2
01:59 69.2 °F /  20.7 °C 65.8 °F /  18.8 °C 29.95in /  1014.1hPa Calm     89% 0.00in /  0mm 0 W/m2
02:04 69.3 °F /  20.7 °C 65.9 °F /  18.8 °C 29.95in /  1014.1hPa Calm     89% 0.00in /  0mm 0 W/m2
02:09 69.3 °F /  20.7 °C 65.9 °F /  18.8 °C 29.95in /  1014.1hPa Calm     89% 0.00in /  0mm 0 W/m2
02:14 69.3 °F /  20.7 °C 65.9 °F /  18.8 °C 29.95in /  1014.1hPa Calm     89% 0.00in /  0mm 0 W/m2
02:19 69.3 °F /  20.7 °C 66 °F /  18.9 °C 29.95in /  1014.1hPa Calm     89% 0.00in /  0mm 0 W/m2
02:24 69.4 °F /  20.8 °C 66 °F /  18.9 °C 29.95in /  1014.1hPa Calm     89% 0.00in /  0mm 0 W/m2
02:29 69.4 °F /  20.8 °C 66 °F /  18.9 °C 29.95in /  1014.1hPa Calm     89% 0.00in /  0mm 0 W/m2
02:34 69.4 °F /  20.8 °C 66 °F /  18.9 °C 29.95in /  1014.1hPa Calm     89% 0.00in /  0mm 0 W/m2
02:39 69.4 °F /  20.8 °C 66 °F /  18.9 °C 29.95in /  1014.1hPa Calm     89% 0.00in /  0mm 0 W/m2
02:44 69.5 °F /  20.8 °C 66.4 °F /  19.1 °C 29.95in /  1014.1hPa Calm     89.9% 0.00in /  0mm 0 W/m2
02:49 69.5 °F /  20.8 °C 66.4 °F /  19.1 °C 29.95in /  1014.1hPa Calm     90% 0.00in /  0mm 0 W/m2
02:54 69.5 °F /  20.8 °C 66.4 °F /  19.1 °C 29.95in /  1014.1hPa Calm     90% 0.00in /  0mm 0 W/m2
02:59 69.5 °F /  20.8 °C 66.5 °F /  19.2 °C 29.95in /  1014.1hPa Calm     90% 0.00in /  0mm 0 W/m2
03:04 69.6 °F /  20.9 °C 66.5 °F /  19.2 °C 29.95in /  1014.1hPa Calm     90% 0.00in /  0mm 0 W/m2
03:09 69.6 °F /  20.9 °C 66.5 °F /  19.2 °C 29.95in /  1014.1hPa Calm     90% 0.00in /  0mm 0 W/m2
03:14 69.6 °F /  20.9 °C 66.5 °F /  19.2 °C 29.95in /  1014.1hPa Calm     90% 0.00in /  0mm 0 W/m2
03:19 69.6 °F /  20.9 °C 66.6 °F /  19.2 °C 29.95in /  1014.1hPa Calm     90% 0.00in /  0mm 0 W/m2
03:24 69.7 °F /  20.9 °C 66.6 °F /  19.2 °C 29.94in /  1013.8hPa Calm     90% 0.00in /  0mm 0 W/m2
03:29 69.7 °F /  20.9 °C 66.7 °F /  19.3 °C 29.94in /  1013.8hPa Calm     90% 0.00in /  0mm 0 W/m2
03:34 69.8 °F /  21 °C 67 °F /  19.4 °C 29.94in /  1013.8hPa Calm     90.8% 0.00in /  0mm 0 W/m2
03:39 69.8 °F /  21 °C 67.1 °F /  19.5 °C 29.94in /  1013.8hPa Calm     91% 0.00in /  0mm 0 W/m2
03:44 69.8 °F /  21 °C 67 °F /  19.4 °C 29.94in /  1013.8hPa Calm     90.8% 0.00in /  0mm 0 W/m2
03:49 69.8 °F /  21 °C 67.1 °F /  19.5 °C 29.94in /  1013.8hPa Calm     91% 0.00in /  0mm 0 W/m2
03:54 69.9 °F /  21.1 °C 67.1 °F /  19.5 °C 29.94in /  1013.8hPa Calm     91% 0.00in /  0mm 0 W/m2
03:59 69.9 °F /  21.1 °C 67.2 °F /  19.6 °C 29.93in /  1013.4hPa Calm     91% 0.00in /  0mm 0 W/m2
04:00 69.9 °F /  21.1 °C 67.2 °F /  19.6 °C 29.93in /  1013.4hPa Calm     91% 0.00in /  0mm 0 W/m2
04:09 70.1 °F /  21.2 °C 67.4 °F /  19.7 °C 29.93in /  1013.4hPa Calm     91% 0.00in /  0mm 0 W/m2
04:14 70.1 °F /  21.2 °C 67.4 °F /  19.7 °C 29.93in /  1013.4hPa Calm     91% 0.00in /  0mm 0 W/m2
04:19 70.1 °F /  21.2 °C 67.4 °F /  19.7 °C 29.93in /  1013.4hPa Calm     91% 0.00in /  0mm 0 W/m2
04:24 70.1 °F /  21.2 °C 67.4 °F /  19.7 °C 29.93in /  1013.4hPa Calm     91% 0.00in /  0mm 0 W/m2
04:29 70.2 °F /  21.2 °C 67.7 °F /  19.8 °C 29.93in /  1013.4hPa Calm     91.7% 0.00in /  0mm 0 W/m2
04:34 70.3 °F /  21.3 °C 67.8 °F /  19.9 °C 29.93in /  1013.4hPa Calm     92% 0.00in /  0mm 0 W/m2
04:39 70.4 °F /  21.3 °C 67.9 °F /  19.9 °C 29.93in /  1013.4hPa Calm     92% 0.00in /  0mm 0 W/m2
04:44 70.4 °F /  21.3 °C 68 °F /  20 °C 29.93in /  1013.4hPa Calm     92% 0.00in /  0mm 0 W/m2
04:49 70.5 °F /  21.4 °C 68.1 °F /  20.1 °C 29.93in /  1013.4hPa Calm     92% 0.00in /  0mm 0 W/m2
04:54 70.5 °F /  21.4 °C 68.1 °F /  20.1 °C 29.93in /  1013.4hPa Calm     92% 0.00in /  0mm 0 W/m2
04:59 70.6 °F /  21.4 °C 68.1 °F /  20.1 °C 29.93in /  1013.4hPa Calm     92% 0.00in /  0mm 0 W/m2
05:04 70.7 °F /  21.5 °C 68.5 °F /  20.3 °C 29.93in /  1013.4hPa Calm   1mph /  1.6km/h 92.7% 0.00in /  0mm 0 W/m2
05:09 70.9 °F /  21.6 °C 68.8 °F /  20.4 °C 29.93in /  1013.4hPa Calm   1mph /  1.6km/h 93% 0.00in /  0mm 0 W/m2
05:14 71.1 °F /  21.7 °C 69 °F /  20.6 °C 29.93in /  1013.4hPa Calm   1mph /  1.6km/h 93% 0.00in /  0mm 0 W/m2
05:19 71.2 °F /  21.8 °C 69.1 °F /  20.6 °C 29.93in /  1013.4hPa Calm   1mph /  1.6km/h 93% 0.00in /  0mm 0 W/m2
05:24 71.3 °F /  21.8 °C 69.2 °F /  20.7 °C 29.93in /  1013.4hPa Calm   1mph /  1.6km/h 93% 0.00in /  0mm 0 W/m2
05:29 71.3 °F /  21.8 °C 69.2 °F /  20.7 °C 29.93in /  1013.4hPa Calm   1mph /  1.6km/h 93% 0.00in /  0mm 0 W/m2
05:34 71.4 °F /  21.9 °C 69.3 °F /  20.7 °C 29.93in /  1013.4hPa Calm   1mph /  1.6km/h 93% 0.00in /  0mm 0 W/m2
05:39 71.4 °F /  21.9 °C 69.3 °F /  20.7 °C 29.92in /  1013.1hPa Calm     93% 0.00in /  0mm 0 W/m2
05:44 71.5 °F /  21.9 °C 69.7 °F /  20.9 °C 29.92in /  1013.1hPa Calm     94% 0.00in /  0mm 0 W/m2
05:49 71.5 °F /  21.9 °C 69.7 °F /  20.9 °C 29.92in /  1013.1hPa Calm     94% 0.00in /  0mm 0 W/m2
05:54 71.5 °F /  21.9 °C 69.7 °F /  20.9 °C 29.93in /  1013.4hPa Calm     94% 0.00in /  0mm 0 W/m2
05:59 71.5 °F /  21.9 °C 69.7 °F /  20.9 °C 29.93in /  1013.4hPa Calm     94% 0.00in /  0mm 0 W/m2
06:04 71.6 °F /  22 °C 69.8 °F /  21 °C 29.93in /  1013.4hPa Calm     94% 0.00in /  0mm 0 W/m2
06:09 71.6 °F /  22 °C 69.8 °F /  21 °C 29.93in /  1013.4hPa Calm   1mph /  1.6km/h 94% 0.00in /  0mm 0 W/m2
06:14 71.6 °F /  22 °C 69.8 °F /  21 °C 29.93in /  1013.4hPa Calm   1mph /  1.6km/h 94% 0.00in /  0mm 0 W/m2
06:19 71.6 °F /  22 °C 69.8 °F /  21 °C 29.93in /  1013.4hPa Calm   1mph /  1.6km/h 94% 0.00in /  0mm 0 W/m2
06:24 71.5 °F /  21.9 °C 69.7 °F /  20.9 °C 29.93in /  1013.4hPa Calm   1mph /  1.6km/h 94% 0.00in /  0mm 0 W/m2
06:29 71.5 °F /  21.9 °C 69.7 °F /  20.9 °C 29.93in /  1013.4hPa Calm   1mph /  1.6km/h 94% 0.00in /  0mm 0 W/m2
06:34 71.5 °F /  21.9 °C 69.7 °F /  20.9 °C 29.93in /  1013.4hPa Calm   1mph /  1.6km/h 94% 0.00in /  0mm 0 W/m2
06:39 71.5 °F /  21.9 °C 69.7 °F /  20.9 °C 29.93in /  1013.4hPa Calm     94% 0.00in /  0mm 0 W/m2
06:44 71.5 °F /  21.9 °C 69.7 °F /  20.9 °C 29.93in /  1013.4hPa Calm     94% 0.00in /  0mm 5 W/m2
06:49 71.5 °F /  21.9 °C 69.7 °F /  20.9 °C 29.93in /  1013.4hPa Calm     94% 0.00in /  0mm 5 W/m2
06:54 71.5 °F /  21.9 °C 69.7 °F /  20.9 °C 29.93in /  1013.4hPa Calm     94% 0.00in /  0mm 5 W/m2
06:59 71.6 °F /  22 °C 69.8 °F /  21 °C 29.93in /  1013.4hPa Calm     94% 0.00in /  0mm 7 W/m2
07:04 71.6 °F /  22 °C 69.8 °F /  21 °C 29.93in /  1013.4hPa Calm     94% 0.00in /  0mm 12 W/m2
07:09 71.7 °F /  22.1 °C 69.9 °F /  21.1 °C 29.93in /  1013.4hPa Calm     94% 0.00in /  0mm 12 W/m2
07:14 71.8 °F /  22.1 °C 69.9 °F /  21.1 °C 29.93in /  1013.4hPa Calm     94% 0.00in /  0mm 12 W/m2
07:19 71.9 °F /  22.2 °C 70 °F /  21.1 °C 29.93in /  1013.4hPa Calm     93.8% 0.00in /  0mm 16 W/m2
07:24 71.9 °F /  22.2 °C 69.8 °F /  21 °C 29.93in /  1013.4hPa Calm     93% 0.00in /  0mm 19 W/m2
07:29 72 °F /  22.2 °C 69.8 °F /  21 °C 29.93in /  1013.4hPa Calm     93% 0.00in /  0mm 32 W/m2
07:34 72.1 °F /  22.3 °C 69.9 °F /  21.1 °C 29.93in /  1013.4hPa Calm     93% 0.00in /  0mm 32 W/m2
07:39 72.2 °F /  22.3 °C 70 °F /  21.1 °C 29.93in /  1013.4hPa Calm     93% 0.00in /  0mm 44 W/m2
07:44 72.2 °F /  22.3 °C 70.1 °F /  21.2 °C 29.93in /  1013.4hPa Calm     93% 0.00in /  0mm 40 W/m2
07:49 72.3 °F /  22.4 °C 70.2 °F /  21.2 °C 29.93in /  1013.4hPa Calm     93% 0.00in /  0mm 44 W/m2
07:54 72.4 °F /  22.4 °C 70.3 °F /  21.3 °C 29.93in /  1013.4hPa Calm     93% 0.00in /  0mm 47 W/m2
07:59 72.6 °F /  22.6 °C 70.4 °F /  21.3 °C 29.93in /  1013.4hPa Calm     93% 0.00in /  0mm 49 W/m2
08:00 72.6 °F /  22.6 °C 70.5 °F /  21.4 °C 29.93in /  1013.4hPa Calm     93% 0.00in /  0mm 46 W/m2
08:09 72.7 °F /  22.6 °C 70.4 °F /  21.3 °C 29.93in /  1013.4hPa Calm     92.5% 0.00in /  0mm 46 W/m2
08:14 72.8 °F /  22.7 °C 70.6 °F /  21.4 °C 29.93in /  1013.4hPa SSW 0.1mph /  0.2km/h 4mph /  6.4km/h 92.8% 0.00in /  0mm 58 W/m2
08:19 72.9 °F /  22.7 °C 70.6 °F /  21.4 °C 29.93in /  1013.4hPa Calm   4mph /  6.4km/h 92.2% 0.00in /  0mm 63 W/m2
08:24 73 °F /  22.8 °C 70.6 °F /  21.4 °C 29.93in /  1013.4hPa Calm   4mph /  6.4km/h 92% 0.00in /  0mm 62 W/m2
08:29 73.1 °F /  22.8 °C 70.6 °F /  21.4 °C 29.93in /  1013.4hPa Calm   4mph /  6.4km/h 92% 0.00in /  0mm 47 W/m2
08:34 73.2 °F /  22.9 °C 70.7 °F /  21.5 °C 29.93in /  1013.4hPa Calm   4mph /  6.4km/h 92% 0.00in /  0mm 69 W/m2
08:39 73.3 °F /  22.9 °C 70.8 °F /  21.6 °C 29.93in /  1013.4hPa Calm     92% 0.00in /  0mm 69 W/m2
08:44 73.4 °F /  23 °C 70.9 °F /  21.6 °C 29.93in /  1013.4hPa Calm     92% 0.00in /  0mm 81 W/m2
08:49 73.5 °F /  23.1 °C 71 °F /  21.7 °C 29.93in /  1013.4hPa Calm   1mph /  1.6km/h 92% 0.00in /  0mm 113 W/m2
08:54 73.6 °F /  23.1 °C 71.1 °F /  21.7 °C 29.93in /  1013.4hPa Calm   1mph /  1.6km/h 92% 0.00in /  0mm 116 W/m2
08:59 73.7 °F /  23.2 °C 71.2 °F /  21.8 °C 29.93in /  1013.4hPa Calm   1mph /  1.6km/h 92% 0.00in /  0mm 83 W/m2
09:04 73.9 °F /  23.3 °C 71.1 °F /  21.7 °C 29.93in /  1013.4hPa Calm   1mph /  1.6km/h 91% 0.00in /  0mm 102 W/m2
09:09 74 °F /  23.3 °C 71.3 °F /  21.8 °C 29.93in /  1013.4hPa Calm   1mph /  1.6km/h 91.2% 0.00in /  0mm 130 W/m2
09:14 74.2 °F /  23.4 °C 71.5 °F /  21.9 °C 29.93in /  1013.4hPa Calm   1mph /  1.6km/h 91.3% 0.00in /  0mm 128 W/m2
09:19 74.4 °F /  23.6 °C 71.6 °F /  22 °C 29.93in /  1013.4hPa Calm   1mph /  1.6km/h 91% 0.00in /  0mm 223 W/m2
09:24 74.6 °F /  23.7 °C 71.8 °F /  22.1 °C 29.93in /  1013.4hPa Calm   1mph /  1.6km/h 91% 0.00in /  0mm 223 W/m2
09:29 74.8 °F /  23.8 °C 71.8 °F /  22.1 °C 29.93in /  1013.4hPa Calm   1mph /  1.6km/h 90.2% 0.00in /  0mm 221 W/m2
09:34 75.1 °F /  23.9 °C 71.9 °F /  22.2 °C 29.93in /  1013.4hPa Calm   1mph /  1.6km/h 90% 0.00in /  0mm 204 W/m2
09:39 75.3 °F /  24.1 °C 72.2 °F /  22.3 °C 29.93in /  1013.4hPa Calm   2mph /  3.2km/h 90% 0.00in /  0mm 236 W/m2
09:44 75.6 °F /  24.2 °C 72.4 °F /  22.4 °C 29.93in /  1013.4hPa Calm   2mph /  3.2km/h 89.7% 0.00in /  0mm 237 W/m2
09:49 76 °F /  24.4 °C 72.6 °F /  22.6 °C 29.93in /  1013.4hPa Calm   2mph /  3.2km/h 89.1% 0.00in /  0mm 237 W/m2
09:54 76.3 °F /  24.6 °C 72.6 °F /  22.6 °C 29.93in /  1013.4hPa Calm   2mph /  3.2km/h 88.2% 0.00in /  0mm 316 W/m2
09:59 76.6 °F /  24.8 °C 72.8 °F /  22.7 °C 29.93in /  1013.4hPa Calm   2mph /  3.2km/h 87.9% 0.00in /  0mm 221 W/m2
10:04 77.1 °F /  25.1 °C 73 °F /  22.8 °C 29.93in /  1013.4hPa Calm   2mph /  3.2km/h 87.2% 0.00in /  0mm 403 W/m2
10:09 77.5 °F /  25.3 °C 73 °F /  22.8 °C 29.93in /  1013.4hPa Calm     86.1% 0.00in /  0mm 304 W/m2
10:14 77.8 °F /  25.4 °C 73.1 °F /  22.8 °C 29.93in /  1013.4hPa Calm     85.5% 0.00in /  0mm 304 W/m2
10:19 78.2 °F /  25.7 °C 73.3 °F /  22.9 °C 29.92in /  1013.1hPa Calm     85% 0.00in /  0mm 557 W/m2
10:24 78.6 °F /  25.9 °C 73.4 °F /  23 °C 29.93in /  1013.4hPa SW 0.1mph /  0.2km/h 2mph /  3.2km/h 84.1% 0.00in /  0mm 564 W/m2
10:29 79.2 °F /  26.2 °C 73.6 °F /  23.1 °C 29.92in /  1013.1hPa SW 0.1mph /  0.2km/h 2mph /  3.2km/h 83% 0.00in /  0mm 612 W/m2
10:34 79.9 °F /  26.6 °C 74 °F /  23.3 °C 29.93in /  1013.4hPa SW 0.1mph /  0.2km/h 2mph /  3.2km/h 82.1% 0.00in /  0mm 612 W/m2
10:39 80.4 °F /  26.9 °C 74 °F /  23.3 °C 29.93in /  1013.4hPa SW 0.1mph /  0.2km/h 3mph /  4.8km/h 80.8% 0.00in /  0mm 577 W/m2
10:44 80.6 °F /  27 °C 73.7 °F /  23.2 °C 29.93in /  1013.4hPa Calm   4mph /  6.4km/h 79.5% 0.00in /  0mm 299 W/m2
10:49 80.7 °F /  27.1 °C 73.8 °F /  23.2 °C 29.92in /  1013.1hPa WSW 0.6mph /  1km/h 9mph /  14.5km/h 79.6% 0.00in /  0mm 239 W/m2
10:54 80.7 °F /  27.1 °C 73.8 °F /  23.2 °C 29.92in /  1013.1hPa Calm   9mph /  14.5km/h 79.6% 0.00in /  0mm 464 W/m2
10:59 80.9 °F /  27.2 °C 74.2 °F /  23.4 °C 29.92in /  1013.1hPa SSE 0.1mph /  0.2km/h 9mph /  14.5km/h 80.2% 0.00in /  0mm 279 W/m2
11:04 81 °F /  27.2 °C 73.9 °F /  23.3 °C 29.92in /  1013.1hPa South 0.2mph /  0.3km/h 9mph /  14.5km/h 79.1% 0.00in /  0mm 629 W/m2
11:09 81.3 °F /  27.4 °C 73.8 °F /  23.2 °C 29.92in /  1013.1hPa SSW 0.2mph /  0.3km/h 4mph /  6.4km/h 78.1% 0.00in /  0mm 643 W/m2
11:10 81.4 °F /  27.4 °C 73.9 °F /  23.3 °C 29.92in /  1013.1hPa Calm   4mph /  6.4km/h 78% 0.00in /  0mm 643 W/m2
11:30 82.8 °F /  28.2 °C 74.9 °F /  23.8 °C 29.92in /  1013.1hPa Calm   5mph /  8km/h 77% 0.00in /  0mm 610 W/m2
12:04 83.5 °F /  28.6 °C 75.1 °F /  23.9 °C 29.92in /  1013.1hPa Calm   5mph /  8km/h 75.9% 0.00in /  0mm 610 W/m2
12:09 83.8 °F /  28.8 °C 75.2 °F /  24 °C 29.92in /  1013.1hPa WSW 1mph /  1.6km/h 5mph /  8km/h 75.5% 0.00in /  0mm 185 W/m2
12:14 84.2 °F /  29 °C 74.9 °F /  23.8 °C 29.92in /  1013.1hPa WSW 0.7mph /  1.1km/h 5mph /  8km/h 73.8% 0.00in /  0mm 234 W/m2
12:19 84.6 °F /  29.2 °C 74.9 °F /  23.8 °C 29.92in /  1013.1hPa WSW 0.6mph /  1km/h 5mph /  8km/h 72.8% 0.00in /  0mm 294 W/m2
12:24 84.8 °F /  29.3 °C 74.8 °F /  23.8 °C 29.91in /  1012.8hPa WSW 0.3mph /  0.5km/h 5mph /  8km/h 72.1% 0.00in /  0mm 297 W/m2
12:29 84.9 °F /  29.4 °C 74.8 °F /  23.8 °C 29.91in /  1012.8hPa South 0.3mph /  0.5km/h 5mph /  8km/h 71.8% 0.00in /  0mm 318 W/m2
12:34 84.8 °F /  29.3 °C 74.3 °F /  23.5 °C 29.91in /  1012.8hPa South 0.2mph /  0.3km/h 5mph /  8km/h 71% 0.00in /  0mm 346 W/m2
12:39 84.6 °F /  29.2 °C 74.2 °F /  23.4 °C 29.91in /  1012.8hPa SSE 0.3mph /  0.5km/h 4mph /  6.4km/h 71% 0.00in /  0mm 274 W/m2
12:44 84.4 °F /  29.1 °C 74.4 °F /  23.6 °C 29.90in /  1012.4hPa South 0.6mph /  1km/h 4mph /  6.4km/h 71.8% 0.00in /  0mm 274 W/m2
12:49 84.4 °F /  29.1 °C 74.3 °F /  23.5 °C 29.90in /  1012.4hPa SW 1.3mph /  2.1km/h 7mph /  11.3km/h 71.9% 0.00in /  0mm 243 W/m2
12:54 84.4 °F /  29.1 °C 74.4 °F /  23.6 °C 29.90in /  1012.4hPa SW 0.3mph /  0.5km/h 7mph /  11.3km/h 71.9% 0.00in /  0mm 229 W/m2
12:59 84.4 °F /  29.1 °C 74.6 °F /  23.7 °C 29.90in /  1012.4hPa SW 0.1mph /  0.2km/h 7mph /  11.3km/h 72.5% 0.00in /  0mm 257 W/m2
13:04 84.5 °F /  29.2 °C 74.6 °F /  23.7 °C 29.90in /  1012.4hPa WSW 0.4mph /  0.6km/h 7mph /  11.3km/h 72.3% 0.00in /  0mm 272 W/m2
13:09 84.6 °F /  29.2 °C 74.3 °F /  23.5 °C 29.89in /  1012.1hPa SW 0.8mph /  1.3km/h 5mph /  8km/h 71.4% 0.00in /  0mm 272 W/m2
13:14 84.7 °F /  29.3 °C 74.3 °F /  23.5 °C 29.89in /  1012.1hPa South 0.5mph /  0.8km/h 5mph /  8km/h 71.2% 0.00in /  0mm 230 W/m2
13:19 84.5 °F /  29.2 °C 74.1 °F /  23.4 °C 29.89in /  1012.1hPa South 0.8mph /  1.3km/h 5mph /  8km/h 71% 0.00in /  0mm 234 W/m2
13:24 84.4 °F /  29.1 °C 74.3 °F /  23.5 °C 29.88in /  1011.7hPa SSW 0.9mph /  1.4km/h 5mph /  8km/h 71.8% 0.00in /  0mm 234 W/m2
13:29 84.3 °F /  29.1 °C 74.3 °F /  23.5 °C 29.88in /  1011.7hPa SSW 0.4mph /  0.6km/h 5mph /  8km/h 72% 0.00in /  0mm 225 W/m2
13:34 84.3 °F /  29.1 °C 74.3 °F /  23.5 °C 29.88in /  1011.7hPa SSW 1.2mph /  1.9km/h 5mph /  8km/h 72% 0.00in /  0mm 278 W/m2
13:39 84.4 °F /  29.1 °C 74.4 °F /  23.6 °C 29.88in /  1011.7hPa South 0.5mph /  0.8km/h 4mph /  6.4km/h 72.2% 0.00in /  0mm 193 W/m2
13:44 84.5 °F /  29.2 °C 74.2 °F /  23.4 °C 29.87in /  1011.4hPa South 1.9mph /  3.1km/h 6mph /  9.7km/h 71.3% 0.00in /  0mm 181 W/m2
13:49 84.5 °F /  29.2 °C 74.2 °F /  23.4 °C 29.87in /  1011.4hPa South 2.5mph /  4km/h 9mph /  14.5km/h 71.3% 0.00in /  0mm 167 W/m2
13:54 84.5 °F /  29.2 °C 74 °F /  23.3 °C 29.86in /  1011.1hPa South 1.5mph /  2.4km/h 9mph /  14.5km/h 70.9% 0.00in /  0mm 148 W/m2
13:59 84.4 °F /  29.1 °C 74.1 °F /  23.4 °C 29.86in /  1011.1hPa South 0.8mph /  1.3km/h 10mph /  16.1km/h 71.2% 0.00in /  0mm 149 W/m2
14:04 84.5 °F /  29.2 °C 74.4 °F /  23.6 °C 29.86in /  1011.1hPa South 1.4mph /  2.3km/h 10mph /  16.1km/h 71.7% 0.00in /  0mm 160 W/m2
14:09 84.5 °F /  29.2 °C 73.8 °F /  23.2 °C 29.86in /  1011.1hPa South 1.3mph /  2.1km/h 6mph /  9.7km/h 70.3% 0.00in /  0mm 139 W/m2
14:14 84.5 °F /  29.2 °C 73.7 °F /  23.2 °C 29.86in /  1011.1hPa South 2.7mph /  4.3km/h 7mph /  11.3km/h 70.2% 0.00in /  0mm 178 W/m2
14:19 84.5 °F /  29.2 °C 73.5 °F /  23.1 °C 29.85in /  1010.7hPa SSW 2.1mph /  3.4km/h 7mph /  11.3km/h 69.7% 0.00in /  0mm 490 W/m2
14:24 84.5 °F /  29.2 °C 73.5 °F /  23.1 °C 29.86in /  1011.1hPa South 1.4mph /  2.3km/h 7mph /  11.3km/h 69.5% 0.00in /  0mm 640 W/m2
14:29 84.7 °F /  29.3 °C 73.2 °F /  22.9 °C 29.86in /  1011.1hPa South 2mph /  3.2km/h 12mph /  19.3km/h 68.6% 0.00in /  0mm 517 W/m2
14:34 84.7 °F /  29.3 °C 73.3 °F /  22.9 °C 29.86in /  1011.1hPa SSW 1.2mph /  1.9km/h 12mph /  19.3km/h 68.8% 0.00in /  0mm 292 W/m2
14:39 84.7 °F /  29.3 °C 73.1 °F /  22.8 °C 29.86in /  1011.1hPa SW 1.3mph /  2.1km/h 9mph /  14.5km/h 68.4% 0.00in /  0mm 241 W/m2
14:44 84.6 °F /  29.2 °C 73 °F /  22.8 °C 29.86in /  1011.1hPa SW 1mph /  1.6km/h 9mph /  14.5km/h 68.2% 0.00in /  0mm 330 W/m2
14:49 84.6 °F /  29.2 °C 73 °F /  22.8 °C 29.86in /  1011.1hPa South 0.9mph /  1.4km/h 9mph /  14.5km/h 68.2% 0.00in /  0mm 485 W/m2
14:54 84.7 °F /  29.3 °C 73.3 °F /  22.9 °C 29.86in /  1011.1hPa SSW 0.6mph /  1km/h 9mph /  14.5km/h 68.7% 0.00in /  0mm 387 W/m2
14:59 84.8 °F /  29.3 °C 73.1 °F /  22.8 °C 29.86in /  1011.1hPa South 0.8mph /  1.3km/h 9mph /  14.5km/h 68% 0.00in /  0mm 478 W/m2
15:04 84.8 °F /  29.3 °C 73.2 °F /  22.9 °C 29.86in /  1011.1hPa South 0.2mph /  0.3km/h 9mph /  14.5km/h 68.3% 0.00in /  0mm 362 W/m2
15:09 84.9 °F /  29.4 °C 73.4 °F /  23 °C 29.86in /  1011.1hPa South 1mph /  1.6km/h 5mph /  8km/h 68.6% 0.00in /  0mm 403 W/m2
15:14 85 °F /  29.4 °C 73.7 °F /  23.2 °C 29.86in /  1011.1hPa SSW 0.5mph /  0.8km/h 5mph /  8km/h 68.9% 0.00in /  0mm 283 W/m2
15:19 85.1 °F /  29.5 °C 73.7 °F /  23.2 °C 29.86in /  1011.1hPa SSW 0.1mph /  0.2km/h 5mph /  8km/h 68.7% 0.00in /  0mm 461 W/m2
15:24 85.2 °F /  29.6 °C 73.6 °F /  23.1 °C 29.86in /  1011.1hPa SSW 0.5mph /  0.8km/h 5mph /  8km/h 68.3% 0.00in /  0mm 221 W/m2
15:29 85.2 °F /  29.6 °C 73.8 °F /  23.2 °C 29.86in /  1011.1hPa SSW 0.2mph /  0.3km/h 5mph /  8km/h 68.8% 0.00in /  0mm 362 W/m2
15:34 85.2 °F /  29.6 °C 73.6 °F /  23.1 °C 29.86in /  1011.1hPa SSW 1.2mph /  1.9km/h 6mph /  9.7km/h 68.3% 0.00in /  0mm 432 W/m2
15:39 85.2 °F /  29.6 °C 73.5 °F /  23.1 °C 29.86in /  1011.1hPa Calm   6mph /  9.7km/h 68.1% 0.00in /  0mm 515 W/m2
15:44 85.3 °F /  29.6 °C 73.9 °F /  23.3 °C 29.86in /  1011.1hPa South 0.9mph /  1.4km/h 6mph /  9.7km/h 68.6% 0.00in /  0mm 564 W/m2
15:49 85.6 °F /  29.8 °C 74 °F /  23.3 °C 29.86in /  1011.1hPa South 0.8mph /  1.3km/h 6mph /  9.7km/h 68.4% 0.00in /  0mm 508 W/m2
15:54 85.7 °F /  29.8 °C 73.9 °F /  23.3 °C 29.86in /  1011.1hPa SSW 0.9mph /  1.4km/h 6mph /  9.7km/h 67.8% 0.00in /  0mm 508 W/m2
15:59 85.6 °F /  29.8 °C 73.8 °F /  23.2 °C 29.86in /  1011.1hPa SW 0.5mph /  0.8km/h 6mph /  9.7km/h 68% 0.00in /  0mm 132 W/m2
16:04 85.3 °F /  29.6 °C 73.6 °F /  23.1 °C 29.86in /  1011.1hPa SW 0.3mph /  0.5km/h 1mph /  1.6km/h 68% 0.00in /  0mm 121 W/m2
16:09 85.2 °F /  29.6 °C 73.5 °F /  23.1 °C 29.86in /  1011.1hPa South 1.6mph /  2.6km/h 6mph /  9.7km/h 68.2% 0.00in /  0mm 121 W/m2
16:14 85.1 °F /  29.5 °C 73.6 °F /  23.1 °C 29.86in /  1011.1hPa SW 0.6mph /  1km/h 6mph /  9.7km/h 68.6% 0.00in /  0mm 120 W/m2
16:19 85.1 °F /  29.5 °C 73.6 °F /  23.1 °C 29.86in /  1011.1hPa SSW 1.3mph /  2.1km/h 6mph /  9.7km/h 68.7% 0.00in /  0mm 109 W/m2
16:24 85.1 °F /  29.5 °C 73.6 °F /  23.1 °C 29.86in /  1011.1hPa SSW 1.2mph /  1.9km/h 6mph /  9.7km/h 68.5% 0.00in /  0mm 90 W/m2
16:29 85.1 °F /  29.5 °C 73.6 °F /  23.1 °C 29.86in /  1011.1hPa SSW 1mph /  1.6km/h 6mph /  9.7km/h 68.7% 0.00in /  0mm 84 W/m2
16:34 85 °F /  29.4 °C 73.7 °F /  23.2 °C 29.87in /  1011.4hPa SSW 0.8mph /  1.3km/h 6mph /  9.7km/h 69% 0.00in /  0mm 83 W/m2
16:39 85 °F /  29.4 °C 73.4 °F /  23 °C 29.87in /  1011.4hPa South 1mph /  1.6km/h 7mph /  11.3km/h 68.4% 0.00in /  0mm 77 W/m2
16:44 84.9 °F /  29.4 °C 73.5 °F /  23.1 °C 29.86in /  1011.1hPa South 1.1mph /  1.8km/h 7mph /  11.3km/h 68.8% 0.00in /  0mm 70 W/m2
16:49 84.8 °F /  29.3 °C 73.4 °F /  23 °C 29.86in /  1011.1hPa SSW 1.6mph /  2.6km/h 9mph /  14.5km/h 68.8% 0.00in /  0mm 62 W/m2
16:54 84.5 °F /  29.2 °C 73.1 °F /  22.8 °C 29.86in /  1011.1hPa SSW 0.9mph /  1.4km/h 9mph /  14.5km/h 68.8% 0.00in /  0mm 51 W/m2
16:59 84.2 °F /  29 °C 73 °F /  22.8 °C 29.86in /  1011.1hPa SSW 1.5mph /  2.4km/h 9mph /  14.5km/h 69% 0.00in /  0mm 49 W/m2
17:04 83.9 °F /  28.8 °C 73.1 °F /  22.8 °C 29.86in /  1011.1hPa South 1.2mph /  1.9km/h 9mph /  14.5km/h 70% 0.00in /  0mm 53 W/m2
17:09 83.8 °F /  28.8 °C 73.2 °F /  22.9 °C 29.86in /  1011.1hPa SSW 0.5mph /  0.8km/h 7mph /  11.3km/h 70.5% 0.00in /  0mm 51 W/m2
17:14 83.7 °F /  28.7 °C 73.4 °F /  23 °C 29.86in /  1011.1hPa SSW 0.4mph /  0.6km/h 7mph /  11.3km/h 71.2% 0.00in /  0mm 47 W/m2
17:19 83.6 °F /  28.7 °C 73.3 °F /  22.9 °C 29.86in /  1011.1hPa SSW 0.5mph /  0.8km/h 9mph /  14.5km/h 71.2% 0.00in /  0mm 49 W/m2
17:24 83.4 °F /  28.6 °C 73 °F /  22.8 °C 29.86in /  1011.1hPa South 1.5mph /  2.4km/h 9mph /  14.5km/h 71% 0.00in /  0mm 49 W/m2
17:29 83.3 °F /  28.5 °C 73.1 °F /  22.8 °C 29.87in /  1011.4hPa South 0.9mph /  1.4km/h 9mph /  14.5km/h 71.4% 0.00in /  0mm 49 W/m2
17:34 83.2 °F /  28.4 °C 73.2 °F /  22.9 °C 29.87in /  1011.4hPa South 0.6mph /  1km/h 9mph /  14.5km/h 71.8% 0.00in /  0mm 40 W/m2
17:39 83.1 °F /  28.4 °C 73.1 °F /  22.8 °C 29.87in /  1011.4hPa SSW 0.2mph /  0.3km/h 4mph /  6.4km/h 72% 0.00in /  0mm 40 W/m2
17:44 83 °F /  28.3 °C 73.5 °F /  23.1 °C 29.88in /  1011.7hPa SSW 0.1mph /  0.2km/h 4mph /  6.4km/h 73% 0.00in /  0mm 40 W/m2
17:49 82.9 °F /  28.3 °C 73.2 °F /  22.9 °C 29.88in /  1011.7hPa SSW 0.7mph /  1.1km/h 4mph /  6.4km/h 72.7% 0.00in /  0mm 35 W/m2
17:54 82.7 °F /  28.2 °C 73.1 °F /  22.8 °C 29.88in /  1011.7hPa SW 0.5mph /  0.8km/h 6mph /  9.7km/h 72.6% 0.00in /  0mm 32 W/m2
17:59 82.6 °F /  28.1 °C 72.7 °F /  22.6 °C 29.88in /  1011.7hPa SW 1.5mph /  2.4km/h 10mph /  16.1km/h 72.2% 0.00in /  0mm 28 W/m2
18:04 82.4 °F /  28 °C 72 °F /  22.2 °C 29.89in /  1012.1hPa SW 1.5mph /  2.4km/h 10mph /  16.1km/h 71% 0.00in /  0mm 23 W/m2
18:09 82.1 °F /  27.8 °C 71.6 °F /  22 °C 29.89in /  1012.1hPa SW 2.4mph /  3.9km/h 11mph /  17.7km/h 70.6% 0.00in /  0mm 23 W/m2
18:14 81.9 °F /  27.7 °C 71.3 °F /  21.8 °C 29.89in /  1012.1hPa WSW 0.3mph /  0.5km/h 11mph /  17.7km/h 70.4% 0.00in /  0mm 19 W/m2
18:19 81.8 °F /  27.7 °C 71.6 °F /  22 °C 29.88in /  1011.7hPa South 0.6mph /  1km/h 11mph /  17.7km/h 71.4% 0.00in /  0mm 16 W/m2
18:24 81.5 °F /  27.5 °C 71.6 °F /  22 °C 29.89in /  1012.1hPa SW 0.5mph /  0.8km/h 11mph /  17.7km/h 71.8% 0.00in /  0mm 12 W/m2
18:29 81.4 °F /  27.4 °C 71.6 °F /  22 °C 29.89in /  1012.1hPa Calm   11mph /  17.7km/h 72.3% 0.00in /  0mm 7 W/m2
18:34 81.2 °F /  27.3 °C 71.7 °F /  22.1 °C 29.89in /  1012.1hPa Calm   11mph /  17.7km/h 73% 0.00in /  0mm 7 W/m2
18:39 80.9 °F /  27.2 °C 71.4 °F /  21.9 °C 29.89in /  1012.1hPa SSW 0.4mph /  0.6km/h 5mph /  8km/h 73% 0.00in /  0mm 5 W/m2
18:44 80.7 °F /  27.1 °C 71.3 °F /  21.8 °C 29.90in /  1012.4hPa South 0.2mph /  0.3km/h 5mph /  8km/h 73.2% 0.00in /  0mm 5 W/m2
18:49 80.4 °F /  26.9 °C 71.4 °F /  21.9 °C 29.90in /  1012.4hPa SSW 0.3mph /  0.5km/h 5mph /  8km/h 74% 0.00in /  0mm 0 W/m2
18:54 80.2 °F /  26.8 °C 71.2 °F /  21.8 °C 29.91in /  1012.8hPa SW 0.4mph /  0.6km/h 5mph /  8km/h 74% 0.00in /  0mm 0 W/m2
18:59 80 °F /  26.7 °C 71 °F /  21.7 °C 29.91in /  1012.8hPa SSW 0.4mph /  0.6km/h 5mph /  8km/h 74% 0.00in /  0mm 0 W/m2
19:04 79.8 °F /  26.6 °C 70.8 °F /  21.6 °C 29.91in /  1012.8hPa SW 0.5mph /  0.8km/h 9mph /  14.5km/h 74% 0.00in /  0mm 0 W/m2
19:09 79.7 °F /  26.5 °C 71 °F /  21.7 °C 29.91in /  1012.8hPa South 0.4mph /  0.6km/h 9mph /  14.5km/h 74.9% 0.00in /  0mm 0 W/m2
19:14 79.5 °F /  26.4 °C 70.9 °F /  21.6 °C 29.92in /  1013.1hPa South 0.3mph /  0.5km/h 9mph /  14.5km/h 75% 0.00in /  0mm 0 W/m2
19:19 79.3 °F /  26.3 °C 70.9 °F /  21.6 °C 29.92in /  1013.1hPa Calm   9mph /  14.5km/h 75.6% 0.00in /  0mm 0 W/m2
19:24 79.1 °F /  26.2 °C 70.9 °F /  21.6 °C 29.92in /  1013.1hPa SSW 0.4mph /  0.6km/h 9mph /  14.5km/h 76% 0.00in /  0mm 0 W/m2
19:29 78.9 °F /  26.1 °C 71.1 °F /  21.7 °C 29.92in /  1013.1hPa South 0.1mph /  0.2km/h 9mph /  14.5km/h 77% 0.00in /  0mm 0 W/m2
19:34 78.8 °F /  26 °C 71.1 °F /  21.7 °C 29.92in /  1013.1hPa Calm   9mph /  14.5km/h 77.5% 0.00in /  0mm 0 W/m2
19:39 78.6 °F /  25.9 °C 71.2 °F /  21.8 °C 29.92in /  1013.1hPa Calm     78.1% 0.00in /  0mm 0 W/m2
19:44 78.5 °F /  25.8 °C 71.4 °F /  21.9 °C 29.93in /  1013.4hPa Calm     79% 0.00in /  0mm 0 W/m2
19:49 78.3 °F /  25.7 °C 71.3 °F /  21.8 °C 29.93in /  1013.4hPa Calm     79% 0.00in /  0mm 0 W/m2
19:54 78.2 °F /  25.7 °C 71.4 °F /  21.9 °C 29.93in /  1013.4hPa Calm     79.9% 0.00in /  0mm 0 W/m2
19:59 78 °F /  25.6 °C 71.3 °F /  21.8 °C 29.94in /  1013.8hPa Calm     80% 0.00in /  0mm 0 W/m2
20:00 77.9 °F /  25.5 °C 71.2 °F /  21.8 °C 29.94in /  1013.8hPa Calm     80% 0.00in /  0mm 0 W/m2
20:09 77.7 °F /  25.4 °C 71.4 °F /  21.9 °C 29.94in /  1013.8hPa Calm     81% 0.00in /  0mm 0 W/m2
20:14 77.6 °F /  25.3 °C 71.5 °F /  21.9 °C 29.94in /  1013.8hPa Calm     81.6% 0.00in /  0mm 0 W/m2
20:19 77.5 °F /  25.3 °C 71.6 °F /  22 °C 29.95in /  1014.1hPa Calm     82% 0.00in /  0mm 0 W/m2
20:24 77.4 °F /  25.2 °C 71.5 °F /  21.9 °C 29.96in /  1014.4hPa West 0.7mph /  1.1km/h 4mph /  6.4km/h 82% 0.00in /  0mm 0 W/m2
20:29 77.3 °F /  25.2 °C 71.3 °F /  21.8 °C 29.97in /  1014.8hPa WNW 1.4mph /  2.3km/h 6mph /  9.7km/h 81.8% 0.00in /  0mm 0 W/m2
20:34 77.2 °F /  25.1 °C 70.7 °F /  21.5 °C 29.97in /  1014.8hPa NW 1.1mph /  1.8km/h 9mph /  14.5km/h 80.5% 0.00in /  0mm 0 W/m2
20:39 77 °F /  25 °C 69.4 °F /  20.8 °C 29.97in /  1014.8hPa NNW 1.2mph /  1.9km/h 9mph /  14.5km/h 77.2% 0.00in /  0mm 0 W/m2
20:44 76.9 °F /  24.9 °C 68.5 °F /  20.3 °C 29.98in /  1015.1hPa NNW 0.6mph /  1km/h 9mph /  14.5km/h 75.1% 0.00in /  0mm 0 W/m2
20:49 76.9 °F /  24.9 °C 68 °F /  20 °C 29.98in /  1015.1hPa NW 0.8mph /  1.3km/h 9mph /  14.5km/h 74% 0.00in /  0mm 0 W/m2
20:54 76.9 °F /  24.9 °C 68.1 °F /  20.1 °C 29.98in /  1015.1hPa NW 0.9mph /  1.4km/h 9mph /  14.5km/h 74.2% 0.00in /  0mm 0 W/m2
20:59 76.9 °F /  24.9 °C 68 °F /  20 °C 29.99in /  1015.5hPa WNW 1.1mph /  1.8km/h 9mph /  14.5km/h 74% 0.00in /  0mm 0 W/m2
21:04 76.8 °F /  24.9 °C 67.8 °F /  19.9 °C 29.99in /  1015.5hPa WNW 0.2mph /  0.3km/h 9mph /  14.5km/h 73.7% 0.00in /  0mm 0 W/m2
21:09 76.7 °F /  24.8 °C 68.5 °F /  20.3 °C 30.00in /  1015.8hPa WNW 0.4mph /  0.6km/h 3mph /  4.8km/h 75.9% 0.02in /  0.51mm 0 W/m2
21:14 76.5 °F /  24.7 °C 69.2 °F /  20.7 °C 30.00in /  1015.8hPa Calm   3mph /  4.8km/h 78.1% 0.03in /  0.76mm 0 W/m2
21:19 76.1 °F /  24.5 °C 69.3 °F /  20.7 °C 30.00in /  1015.8hPa Calm   3mph /  4.8km/h 79.3% 0.03in /  0.76mm 0 W/m2
21:24 75.7 °F /  24.3 °C 69.3 °F /  20.7 °C 30.00in /  1015.8hPa Calm   3mph /  4.8km/h 80.5% 0.03in /  0.76mm 0 W/m2
21:29 75.2 °F /  24 °C 69.2 °F /  20.7 °C 30.00in /  1015.8hPa Calm   3mph /  4.8km/h 81.6% 0.03in /  0.76mm 0 W/m2
21:34 74.7 °F /  23.7 °C 68.8 °F /  20.4 °C 30.00in /  1015.8hPa Calm   3mph /  4.8km/h 82.1% 0.03in /  0.76mm 0 W/m2
21:39 74.2 °F /  23.4 °C 68.8 °F /  20.4 °C 29.99in /  1015.5hPa Calm     83.3% 0.03in /  0.76mm 0 W/m2
21:44 73.9 °F /  23.3 °C 68.7 °F /  20.4 °C 30.00in /  1015.8hPa Calm     84% 0.03in /  0.76mm 0 W/m2
21:49 73.6 °F /  23.1 °C 68.5 °F /  20.3 °C 30.00in /  1015.8hPa Calm     84.1% 0.03in /  0.76mm 0 W/m2
21:54 73.2 °F /  22.9 °C 68.4 °F /  20.2 °C 30.00in /  1015.8hPa Calm     85.1% 0.03in /  0.76mm 0 W/m2
21:59 72.9 °F /  22.7 °C 68.5 °F /  20.3 °C 30.00in /  1015.8hPa Calm     86% 0.03in /  0.76mm 0 W/m2
22:04 72.6 °F /  22.6 °C 68.5 °F /  20.3 °C 30.01in /  1016.1hPa Calm     86.9% 0.03in /  0.76mm 0 W/m2
22:09 72.3 °F /  22.4 °C 68.5 °F /  20.3 °C 30.01in /  1016.1hPa Calm     87.7% 0.03in /  0.76mm 0 W/m2
22:14 72.1 °F /  22.3 °C 68.5 °F /  20.3 °C 30.01in /  1016.1hPa Calm     88.3% 0.03in /  0.76mm 0 W/m2
22:19 72 °F /  22.2 °C 68.6 °F /  20.3 °C 30.01in /  1016.1hPa Calm     89% 0.03in /  0.76mm 0 W/m2
22:24 71.8 °F /  22.1 °C 68.6 °F /  20.3 °C 30.01in /  1016.1hPa Calm     89.6% 0.03in /  0.76mm 0 W/m2
22:29 71.7 °F /  22.1 °C 68.6 °F /  20.3 °C 30.01in /  1016.1hPa Calm     90% 0.03in /  0.76mm 0 W/m2
22:34 71.6 °F /  22 °C 68.5 °F /  20.3 °C 30.01in /  1016.1hPa Calm   1mph /  1.6km/h 90.1% 0.03in /  0.76mm 0 W/m2
22:39 71.5 °F /  21.9 °C 68.7 °F /  20.4 °C 30.01in /  1016.1hPa Calm   1mph /  1.6km/h 91% 0.00in /  0mm 0 W/m2
22:44 71.3 °F /  21.8 °C 68.3 °F /  20.2 °C 30.01in /  1016.1hPa Calm   1mph /  1.6km/h 90.4% 0.00in /  0mm 0 W/m2
22:49 71.1 °F /  21.7 °C 68.2 °F /  20.1 °C 30.02in /  1016.5hPa Calm   1mph /  1.6km/h 90.4% 0.00in /  0mm 0 W/m2
22:54 71.1 °F /  21.7 °C 68.3 °F /  20.2 °C 30.02in /  1016.5hPa Calm   1mph /  1.6km/h 91% 0.00in /  0mm 0 W/m2
22:59 71.1 °F /  21.7 °C 68.3 °F /  20.2 °C 30.02in /  1016.5hPa Calm   1mph /  1.6km/h 91% 0.00in /  0mm 0 W/m2
23:04 71.1 °F /  21.7 °C 68.3 °F /  20.2 °C 30.02in /  1016.5hPa Calm   1mph /  1.6km/h 91% 0.00in /  0mm 0 W/m2
23:09 71.1 °F /  21.7 °C 68.3 °F /  20.2 °C 30.02in /  1016.5hPa Calm     91% 0.00in /  0mm 0 W/m2
23:14 71 °F /  21.7 °C 68.3 °F /  20.2 °C 30.02in /  1016.5hPa Calm     91% 0.00in /  0mm 0 W/m2
23:19 70.9 °F /  21.6 °C 68.1 °F /  20.1 °C 30.02in /  1016.5hPa Calm     91% 0.00in /  0mm 0 W/m2
23:24 70.8 °F /  21.6 °C 68 °F /  20 °C 30.02in /  1016.5hPa Calm     91% 0.00in /  0mm 0 W/m2
23:29 70.7 °F /  21.5 °C 67.9 °F /  19.9 °C 30.01in /  1016.1hPa Calm     91% 0.00in /  0mm 0 W/m2
23:34 70.6 °F /  21.4 °C 67.8 °F /  19.9 °C 30.01in /  1016.1hPa Calm     91% 0.00in /  0mm 0 W/m2
23:39 70.4 °F /  21.3 °C 67.6 °F /  19.8 °C 30.00in /  1015.8hPa Calm     90.6% 0.00in /  0mm 0 W/m2
23:44 70.3 °F /  21.3 °C 67.3 °F /  19.6 °C 30.01in /  1016.1hPa Calm     90% 0.00in /  0mm 0 W/m2
23:49 70.3 °F /  21.3 °C 67.2 °F /  19.6 °C 30.00in /  1015.8hPa Calm     90% 0.00in /  0mm 0 W/m2
23:54 70.3 °F /  21.3 °C 67.4 °F /  19.7 °C 30.01in /  1016.1hPa Calm     90.6% 0.00in /  0mm 0 W/m2
23:59 70.2 °F /  21.2 °C 67.5 °F /  19.7 °C 30.00in /  1015.8hPa Calm     91% 0.00in /  0mm 0 W/m2
Hartford County Weather
Compliments of Weather Underground - 4 mb